Estación Meteorológica Peña el Pijo (Robertgarden) [ 11/19/19 11:02:34 CET ]

Fecha Hora Presion(HPa) Temp (°C) Humedad % Rocio (°C) Viento ( m/s) Direccion Lluvia 1Hora(mm) Lluvia 24H(mm) LLuvia Total(mm)
2019-Mar-08 01:01:44 1007.600 2.3 65 -3.6         184.40
2019-Mar-08 02:01:44 1007.700 2.3 67 -3.2         184.40
2019-Mar-08 03:03:09 1008.000 2.1 69 -3.0         184.40
2019-Mar-08 04:01:54 1007.500 2.4 71 -2.3         184.40
2019-Mar-08 05:01:56 1007.600 2.3 71 -2.4         184.40
2019-Mar-08 06:01:43 1008.000 2.1 72 -2.4         184.40
2019-Mar-08 07:02:04 1008.000 1.8 75 -2.2         184.40
2019-Mar-08 08:01:44 1008.600 1.3 77 -2.3         184.40
2019-Mar-08 09:01:58 1009.100 4.7 80 1.5         184.40
2019-Mar-08 10:01:44 1009.600 10.6 61 3.4         184.40
2019-Mar-08 11:01:31 1010.500 13.7 47 2.5         184.40
2019-Mar-08 12:01:59 1010.600 12.1 46 0.8         184.40
2019-Mar-08 13:02:01 1010.800 11.7 48 1.0         184.40
2019-Mar-08 14:01:49 1010.800 11.8 48 1.1         184.40
2019-Mar-08 15:01:51 1010.800 12.1 48 1.4         184.40
2019-Mar-08 16:01:44 1010.600 15.8 40 2.2         184.40
2019-Mar-08 17:01:48 1011.000 11.0 51 1.2         184.40
2019-Mar-08 18:01:45 1012.000 10.6 54 1.6         184.40
2019-Mar-08 19:01:47 1012.700 9.6 55 1.0         184.40
2019-Mar-08 20:02:08 1013.700 7.4 61 0.4         184.40
2019-Mar-08 21:01:52 1014.600 5.5 66 -0.4         184.40
2019-Mar-08 22:01:47 1015.400 4.1 71 -0.7         184.40
2019-Mar-08 23:01:50 1015.800 3.6 73 -0.8         184.40

Temperatura Máxima:15°    Temperatura Mínima:
Presión Máxima:1015.800 Hpa    Presión Mínima:1007.500 Hpa


Volver